createdAt,value
2023-08-11T00:00:32.128Z,17.76
2023-08-11T00:02:59.004Z,17.80
2023-08-11T00:05:25.683Z,17.81
2023-08-11T00:07:52.402Z,17.77
2023-08-11T00:10:19.465Z,17.73
2023-08-11T00:12:46.623Z,17.70
2023-08-11T00:15:13.444Z,17.72
2023-08-11T00:17:40.710Z,17.69
2023-08-11T00:20:10.808Z,17.63
2023-08-11T00:22:39.064Z,17.63
2023-08-11T00:25:08.348Z,17.60
2023-08-11T00:27:37.300Z,17.58
2023-08-11T00:30:07.355Z,17.52
2023-08-11T00:32:34.078Z,17.49
2023-08-11T00:35:00.796Z,17.46
2023-08-11T00:37:27.441Z,17.50
2023-08-11T00:39:56.431Z,17.45
2023-08-11T00:42:23.846Z,17.30
2023-08-11T00:44:53.095Z,17.24
2023-08-11T00:47:22.052Z,17.14
2023-08-11T00:49:51.549Z,17.02
2023-08-11T00:52:20.972Z,17.06
2023-08-11T00:54:48.186Z,17.08
2023-08-11T00:57:14.987Z,17.09
2023-08-11T00:59:41.805Z,17.03
2023-08-11T01:02:12.338Z,16.97
2023-08-11T01:04:40.391Z,16.97
2023-08-11T01:07:34.110Z,17.01
2023-08-11T01:10:19.241Z,16.97
2023-08-11T01:13:08.999Z,17.00
2023-08-11T01:15:39.924Z,17.02
2023-08-11T01:18:06.876Z,16.88
2023-08-11T01:20:34.657Z,16.80
2023-08-11T01:23:02.161Z,16.76
2023-08-11T01:25:29.503Z,16.56
2023-08-11T01:28:00.559Z,16.56
2023-08-11T01:30:31.341Z,16.57
2023-08-11T01:32:58.162Z,16.58
2023-08-11T01:35:38.262Z,16.65
2023-08-11T01:38:10.282Z,16.70
2023-08-11T01:40:37.433Z,16.72
2023-08-11T01:43:07.111Z,16.72
2023-08-11T01:45:34.516Z,16.71
2023-08-11T01:48:01.485Z,16.77
2023-08-11T01:50:29.074Z,16.78
2023-08-11T01:52:56.235Z,16.80
2023-08-11T01:55:24.870Z,16.77
2023-08-11T01:57:59.060Z,16.75
2023-08-11T02:00:27.791Z,16.72
2023-08-11T02:02:57.600Z,16.71
2023-08-11T02:05:26.387Z,16.65
2023-08-11T02:07:53.919Z,16.66
2023-08-11T02:10:20.689Z,16.65
2023-08-11T02:12:52.168Z,16.56
2023-08-11T02:15:18.922Z,16.40
2023-08-11T02:17:45.685Z,16.33
2023-08-11T02:20:24.931Z,16.35
2023-08-11T02:22:52.585Z,16.36
2023-08-11T02:25:19.483Z,16.39
2023-08-11T02:27:46.245Z,16.41
2023-08-11T02:30:15.882Z,16.34
2023-08-11T02:32:46.872Z,16.29
2023-08-11T02:35:19.293Z,16.29
2023-08-11T02:37:49.233Z,16.20
2023-08-11T02:40:21.248Z,16.21
2023-08-11T02:42:55.169Z,16.24
2023-08-11T02:45:24.728Z,16.27
2023-08-11T02:47:52.622Z,16.25
2023-08-11T02:50:19.805Z,16.24
2023-08-11T02:52:46.805Z,16.26
2023-08-11T02:55:13.601Z,16.23
2023-08-11T02:57:40.288Z,16.22
2023-08-11T03:00:14.066Z,16.20
2023-08-11T03:02:41.358Z,16.19
2023-08-11T03:05:11.090Z,16.18
2023-08-11T03:07:41.816Z,16.18
2023-08-11T03:10:10.286Z,16.13
2023-08-11T03:12:41.738Z,16.11
2023-08-11T03:15:09.549Z,16.10
2023-08-11T03:17:39.449Z,16.08
2023-08-11T03:20:12.539Z,16.06
2023-08-11T03:22:42.183Z,16.00
2023-08-11T03:25:09.442Z,16.01
2023-08-11T03:27:36.160Z,15.99
2023-08-11T03:30:04.310Z,15.98
2023-08-11T03:32:31.645Z,15.96
2023-08-11T03:34:58.404Z,15.97
2023-08-11T03:37:28.752Z,15.99
2023-08-11T03:39:55.732Z,15.96
2023-08-11T03:42:25.342Z,15.93
2023-08-11T03:44:53.722Z,15.88
2023-08-11T03:47:22.043Z,15.86
2023-08-11T03:49:53.506Z,15.89
2023-08-11T03:52:20.177Z,15.88
2023-08-11T03:54:46.720Z,15.86
2023-08-11T03:57:17.867Z,15.85
2023-08-11T03:59:47.566Z,15.86
2023-08-11T04:02:14.746Z,15.81
2023-08-11T04:04:44.084Z,15.81
2023-08-11T04:07:10.845Z,15.78
2023-08-11T04:09:41.132Z,15.81
2023-08-11T04:12:10.462Z,15.73
2023-08-11T04:14:40.451Z,15.72
2023-08-11T04:17:09.429Z,15.70
2023-08-11T04:19:36.096Z,15.73
2023-08-11T04:22:02.748Z,15.77
2023-08-11T04:24:30.401Z,15.81
2023-08-11T04:26:57.160Z,15.77
2023-08-11T04:29:27.266Z,15.82
2023-08-11T04:31:56.600Z,15.90
2023-08-11T04:34:25.631Z,15.99
2023-08-11T04:36:55.551Z,16.05
2023-08-11T04:39:23.007Z,16.06
2023-08-11T04:41:49.830Z,16.12
2023-08-11T04:44:16.565Z,16.17
2023-08-11T04:46:43.672Z,16.07
2023-08-11T04:49:11.928Z,15.92
2023-08-11T04:51:38.697Z,15.84
2023-08-11T04:54:08.581Z,15.94
2023-08-11T04:56:35.312Z,16.03
2023-08-11T04:59:02.496Z,16.11
2023-08-11T05:01:29.196Z,16.17
2023-08-11T05:03:55.994Z,16.12
2023-08-11T05:06:22.943Z,16.22
2023-08-11T05:08:49.684Z,16.33
2023-08-11T05:11:16.326Z,16.39
2023-08-11T05:13:45.847Z,16.45
2023-08-11T05:16:15.111Z,16.51
2023-08-11T05:18:43.912Z,16.42
2023-08-11T05:21:11.103Z,16.39
2023-08-11T05:23:38.247Z,16.43
2023-08-11T05:26:05.101Z,16.49
2023-08-11T05:28:31.746Z,16.51
2023-08-11T05:30:58.550Z,16.48
2023-08-11T05:33:26.156Z,16.46
2023-08-11T05:35:53.026Z,16.45
2023-08-11T05:38:23.828Z,16.43
2023-08-11T05:40:53.504Z,16.50
2023-08-11T05:43:20.639Z,16.49
2023-08-11T05:45:50.385Z,16.55
2023-08-11T05:48:19.441Z,16.58
2023-08-11T05:50:49.373Z,16.69
2023-08-11T05:53:19.072Z,16.77
2023-08-11T05:55:46.146Z,16.83
2023-08-11T05:58:15.050Z,16.93
2023-08-11T06:00:44.618Z,17.08
2023-08-11T06:03:11.352Z,17.19
2023-08-11T06:05:38.048Z,17.32
2023-08-11T06:08:07.326Z,17.40
2023-08-11T06:10:34.505Z,17.43
2023-08-11T06:13:01.301Z,17.46
2023-08-11T06:15:28.009Z,17.55
2023-08-11T06:17:54.771Z,17.60
2023-08-11T06:20:34.246Z,17.65
2023-08-11T06:23:08.258Z,17.74
2023-08-11T06:25:35.366Z,17.85
2023-08-11T06:28:02.865Z,17.95
2023-08-11T06:30:32.369Z,17.99
2023-08-11T06:32:59.146Z,18.09
2023-08-11T06:35:28.393Z,18.23
2023-08-11T06:37:55.431Z,18.36
2023-08-11T06:40:22.076Z,18.46
2023-08-11T06:42:51.267Z,18.53
2023-08-11T06:45:19.826Z,18.60
2023-08-11T06:47:46.436Z,18.69
2023-08-11T06:50:13.151Z,18.76
2023-08-11T06:52:47.737Z,18.88
2023-08-11T06:55:16.478Z,18.96
2023-08-11T06:57:43.237Z,18.97
2023-08-11T07:00:10.112Z,19.04
2023-08-11T07:02:37.126Z,19.14
2023-08-11T07:05:06.821Z,19.23
2023-08-11T07:07:33.472Z,19.30
2023-08-11T07:10:04.261Z,19.40
2023-08-11T07:12:31.177Z,19.47
2023-08-11T07:14:57.925Z,19.61
2023-08-11T07:17:25.362Z,19.72
2023-08-11T07:19:52.029Z,19.78
2023-08-11T07:22:18.811Z,19.85
2023-08-11T07:24:45.427Z,19.90
2023-08-11T07:27:15.790Z,20.00
2023-08-11T07:29:44.258Z,20.10
2023-08-11T07:32:13.933Z,20.10
2023-08-11T07:34:43.050Z,20.17
2023-08-11T07:37:12.275Z,20.20
2023-08-11T07:39:38.857Z,20.24
2023-08-11T07:42:06.010Z,20.26
2023-08-11T07:44:33.501Z,20.30
2023-08-11T07:47:02.484Z,20.37
2023-08-11T07:49:32.652Z,20.48
2023-08-11T07:51:59.409Z,20.54
2023-08-11T07:54:28.521Z,20.57
2023-08-11T07:56:55.204Z,20.56
2023-08-11T07:59:24.314Z,20.57
2023-08-11T08:01:53.595Z,20.65
2023-08-11T08:04:22.922Z,20.70
2023-08-11T08:06:49.525Z,20.76
2023-08-11T08:09:19.548Z,20.73
2023-08-11T08:11:54.151Z,20.65
2023-08-11T08:14:21.006Z,20.60
2023-08-11T08:16:47.884Z,20.63
2023-08-11T08:19:15.914Z,20.73
2023-08-11T08:21:47.227Z,20.87
2023-08-11T08:24:17.251Z,21.01
2023-08-11T08:26:44.615Z,21.18
2023-08-11T08:29:11.295Z,21.27
2023-08-11T08:31:42.670Z,21.42
2023-08-11T08:34:09.387Z,21.52
2023-08-11T08:36:36.182Z,21.62
2023-08-11T08:39:03.047Z,21.70
2023-08-11T08:41:34.158Z,21.82
2023-08-11T08:44:01.178Z,21.88
2023-08-11T08:46:34.204Z,21.95
2023-08-11T08:49:34.361Z,22.03
2023-08-11T08:52:04.751Z,22.13
2023-08-11T08:54:33.467Z,22.29
2023-08-11T08:57:00.843Z,22.43
2023-08-11T08:59:30.452Z,22.54
2023-08-11T09:01:57.795Z,22.66
2023-08-11T09:04:27.189Z,22.81
2023-08-11T09:06:57.032Z,22.92
2023-08-11T09:09:24.725Z,22.99
2023-08-11T09:11:51.857Z,23.06
2023-08-11T09:14:20.329Z,23.09
2023-08-11T09:16:52.613Z,23.16
2023-08-11T09:19:20.516Z,23.28
2023-08-11T09:21:47.323Z,23.39
2023-08-11T09:24:14.896Z,23.47
2023-08-11T09:26:51.293Z,23.55
2023-08-11T09:29:18.941Z,23.65
2023-08-11T09:31:54.815Z,23.80
2023-08-11T09:34:21.570Z,23.98
2023-08-11T09:36:51.491Z,24.04
2023-08-11T09:39:18.240Z,24.19
2023-08-11T09:41:49.346Z,24.37
2023-08-11T09:44:19.255Z,24.46
2023-08-11T09:46:47.428Z,24.54
2023-08-11T09:49:18.914Z,24.65
2023-08-11T09:51:49.799Z,24.73
2023-08-11T09:54:19.561Z,24.84
2023-08-11T09:56:46.182Z,24.96
2023-08-11T09:59:14.001Z,25.08
2023-08-11T10:01:43.887Z,25.24
2023-08-11T10:04:11.946Z,25.28
2023-08-11T10:06:46.010Z,25.40
2023-08-11T10:09:15.286Z,25.58
2023-08-11T10:11:42.722Z,25.83
2023-08-11T10:14:09.391Z,26.04
2023-08-11T10:16:36.027Z,26.16
2023-08-11T10:19:05.203Z,26.31
2023-08-11T10:21:31.810Z,26.42
2023-08-11T10:24:00.863Z,26.60
2023-08-11T10:26:27.623Z,26.86
2023-08-11T10:28:56.281Z,27.10
2023-08-11T10:31:23.700Z,27.35
2023-08-11T10:33:51.107Z,27.42
2023-08-11T10:36:23.878Z,27.48
2023-08-11T10:39:02.465Z,27.65
2023-08-11T10:41:29.220Z,27.84
2023-08-11T10:43:58.261Z,28.06
2023-08-11T10:46:29.516Z,28.35
2023-08-11T10:48:59.858Z,28.32
2023-08-11T10:51:29.533Z,28.24
2023-08-11T10:53:59.380Z,28.19
2023-08-11T10:56:33.163Z,28.41
2023-08-11T10:59:18.732Z,28.90
2023-08-11T11:01:49.163Z,29.18
2023-08-11T11:04:17.007Z,29.53
2023-08-11T11:06:50.260Z,29.72
2023-08-11T11:09:19.157Z,30.06
2023-08-11T11:11:47.424Z,30.40
2023-08-11T11:14:18.796Z,30.79
2023-08-11T11:16:45.598Z,30.62
2023-08-11T11:19:12.305Z,30.64
2023-08-11T11:21:41.613Z,30.47
2023-08-11T11:24:08.806Z,30.52
2023-08-11T11:26:37.972Z,30.24
2023-08-11T11:29:06.293Z,30.01
2023-08-11T11:31:36.713Z,29.91
2023-08-11T11:34:03.668Z,29.98
2023-08-11T11:36:30.684Z,29.80
2023-08-11T11:39:00.898Z,29.68
2023-08-11T11:41:32.199Z,29.62
2023-08-11T11:44:02.324Z,30.01
2023-08-11T11:46:32.307Z,30.34
2023-08-11T11:49:07.083Z,31.06
2023-08-11T11:51:40.009Z,31.48
2023-08-11T11:54:09.185Z,31.76
2023-08-11T11:56:44.518Z,31.65
2023-08-11T11:59:17.337Z,31.47
2023-08-11T12:01:46.840Z,30.93
2023-08-11T12:04:13.606Z,30.95
2023-08-11T12:06:40.311Z,31.43
2023-08-11T12:09:10.592Z,32.10
2023-08-11T12:11:41.718Z,32.43
2023-08-11T12:14:08.818Z,32.38
2023-08-11T12:16:36.161Z,33.06
2023-08-11T12:19:03.503Z,33.36
2023-08-11T12:21:30.212Z,33.77
2023-08-11T12:23:59.221Z,34.16
2023-08-11T12:26:28.383Z,34.55
2023-08-11T12:28:57.251Z,34.70
2023-08-11T12:31:26.018Z,34.66
2023-08-11T12:33:52.752Z,34.56
2023-08-11T12:36:21.950Z,34.57
2023-08-11T12:38:51.203Z,35.24
2023-08-11T12:41:19.110Z,35.57
2023-08-11T12:43:48.127Z,36.10
2023-08-11T12:46:14.829Z,36.39
2023-08-11T12:48:44.287Z,36.83
2023-08-11T12:51:15.473Z,36.84
2023-08-11T12:53:42.177Z,37.52
2023-08-11T12:56:08.949Z,37.83
2023-08-11T12:58:43.874Z,38.64
2023-08-11T13:01:10.580Z,38.79
2023-08-11T13:03:37.332Z,39.10
2023-08-11T13:06:06.258Z,39.43
2023-08-11T13:08:35.017Z,40.06
2023-08-11T13:11:01.761Z,39.94
2023-08-11T13:13:30.783Z,40.14
2023-08-11T13:15:59.786Z,40.07
2023-08-11T13:18:29.190Z,40.27
2023-08-11T13:20:55.894Z,40.42
2023-08-11T13:23:23.920Z,40.36
2023-08-11T13:25:50.572Z,39.52
2023-08-11T13:28:17.201Z,39.74
2023-08-11T13:30:46.702Z,39.04
2023-08-11T13:33:13.387Z,39.73
2023-08-11T13:35:42.484Z,40.72
2023-08-11T13:38:13.050Z,41.35
2023-08-11T13:40:39.748Z,42.16
2023-08-11T13:43:06.420Z,42.77
2023-08-11T13:45:35.236Z,42.35
2023-08-11T13:48:04.449Z,42.72
2023-08-11T13:50:31.233Z,41.76
2023-08-11T13:52:57.966Z,42.04
2023-08-11T13:55:25.899Z,41.94
2023-08-11T13:57:52.474Z,42.96
2023-08-11T14:00:24.381Z,43.23
2023-08-11T14:02:55.295Z,43.45
2023-08-11T14:05:25.775Z,44.74
2023-08-11T14:07:54.886Z,45.54
2023-08-11T14:10:21.732Z,46.48
2023-08-11T14:12:48.452Z,46.63
2023-08-11T14:15:15.151Z,46.23
2023-08-11T14:17:42.046Z,45.20
2023-08-11T14:20:11.543Z,44.14
2023-08-11T14:22:40.992Z,44.08
2023-08-11T14:25:10.185Z,44.30
2023-08-11T14:27:37.018Z,43.93
2023-08-11T14:30:06.537Z,43.11
2023-08-11T14:32:33.615Z,43.58
2023-08-11T14:35:02.914Z,44.38
2023-08-11T14:37:31.945Z,45.20
2023-08-11T14:39:58.765Z,45.18
2023-08-11T14:42:30.325Z,44.87
2023-08-11T14:44:59.985Z,44.09
2023-08-11T14:47:29.682Z,42.96
2023-08-11T14:49:56.310Z,42.44
2023-08-11T14:52:26.177Z,43.48
2023-08-11T14:54:52.817Z,43.74
2023-08-11T14:57:20.686Z,44.02
2023-08-11T14:59:52.300Z,44.06
2023-08-11T15:02:24.001Z,44.05
2023-08-11T15:04:50.739Z,44.46
2023-08-11T15:07:29.605Z,44.41
2023-08-11T15:09:57.494Z,43.61
2023-08-11T15:12:26.661Z,42.29
2023-08-11T15:15:00.933Z,41.19
2023-08-11T15:17:27.764Z,42.36
2023-08-11T15:19:54.446Z,42.86
2023-08-11T15:22:21.269Z,43.45
2023-08-11T15:24:47.885Z,43.67
2023-08-11T15:27:19.265Z,44.04
2023-08-11T15:29:46.167Z,44.75
2023-08-11T15:32:13.027Z,45.22
2023-08-11T15:34:42.534Z,45.08
2023-08-11T15:37:13.881Z,45.20
2023-08-11T15:39:45.164Z,44.74
2023-08-11T15:42:14.230Z,44.50
2023-08-11T15:44:43.248Z,44.19
2023-08-11T15:47:10.365Z,43.54
2023-08-11T15:49:40.035Z,42.72
2023-08-11T15:52:06.965Z,41.59
2023-08-11T15:54:38.243Z,40.63
2023-08-11T15:57:04.853Z,39.15
2023-08-11T15:59:31.982Z,37.71
2023-08-11T16:02:09.238Z,36.78
2023-08-11T16:04:37.842Z,36.02
2023-08-11T16:07:04.646Z,35.22
2023-08-11T16:09:31.371Z,34.47
2023-08-11T16:12:00.404Z,33.90
2023-08-11T16:14:28.976Z,33.63
2023-08-11T16:16:59.938Z,33.07
2023-08-11T16:19:26.609Z,32.83
2023-08-11T16:21:58.599Z,32.65
2023-08-11T16:24:25.276Z,32.40
2023-08-11T16:26:54.321Z,32.10
2023-08-11T16:29:23.437Z,31.80
2023-08-11T16:31:50.220Z,31.63
2023-08-11T16:34:19.533Z,31.38
2023-08-11T16:36:46.158Z,31.13
2023-08-11T16:39:13.136Z,30.99
2023-08-11T16:41:39.774Z,30.96
2023-08-11T16:44:06.573Z,30.69
2023-08-11T16:46:33.254Z,30.52
2023-08-11T16:49:02.487Z,30.29
2023-08-11T16:51:32.003Z,30.00
2023-08-11T16:53:58.886Z,29.62
2023-08-11T16:56:27.993Z,29.45
2023-08-11T16:58:54.620Z,29.12
2023-08-11T17:01:21.446Z,29.03
2023-08-11T17:03:50.647Z,28.96
2023-08-11T17:06:20.435Z,28.91
2023-08-11T17:08:50.177Z,28.72
2023-08-11T17:11:17.669Z,28.63
2023-08-11T17:13:48.525Z,28.58
2023-08-11T17:16:18.765Z,28.43
2023-08-11T17:18:46.835Z,28.30
2023-08-11T17:21:19.997Z,28.05
2023-08-11T17:23:47.544Z,27.77
2023-08-11T17:26:17.657Z,27.61
2023-08-11T17:28:45.892Z,27.33
2023-08-11T17:31:12.597Z,27.07
2023-08-11T17:33:39.355Z,26.87
2023-08-11T17:36:08.622Z,26.62
2023-08-11T17:38:37.596Z,26.55
2023-08-11T17:41:04.230Z,26.33
2023-08-11T17:43:33.690Z,26.07
2023-08-11T17:46:00.463Z,25.91
2023-08-11T17:48:31.960Z,25.79
2023-08-11T17:51:01.235Z,25.73
2023-08-11T17:53:30.875Z,25.60
2023-08-11T17:56:00.335Z,25.45
2023-08-11T17:58:27.251Z,25.33
2023-08-11T18:00:56.972Z,25.27
2023-08-11T18:03:23.746Z,25.20
2023-08-11T18:05:50.367Z,25.19
2023-08-11T18:08:17.081Z,25.19
2023-08-11T18:10:43.672Z,25.15
2023-08-11T18:13:15.022Z,25.08
2023-08-11T18:15:46.904Z,24.98
2023-08-11T18:18:19.259Z,24.89
2023-08-11T18:20:48.364Z,24.92
2023-08-11T18:23:15.252Z,24.93
2023-08-11T18:25:42.450Z,24.91
2023-08-11T18:28:09.456Z,24.89
2023-08-11T18:30:36.142Z,24.90
2023-08-11T18:33:02.817Z,24.92
2023-08-11T18:35:29.810Z,24.81
2023-08-11T18:37:59.433Z,24.73
2023-08-11T18:40:27.211Z,24.53
2023-08-11T18:42:58.837Z,24.43
2023-08-11T18:45:25.605Z,24.36
2023-08-11T18:48:00.564Z,24.32
2023-08-11T18:50:27.318Z,24.28
2023-08-11T18:52:54.107Z,24.25
2023-08-11T18:55:20.953Z,24.24
2023-08-11T18:57:47.611Z,24.18
2023-08-11T19:00:14.840Z,24.16
2023-08-11T19:02:41.586Z,24.13
2023-08-11T19:05:08.479Z,24.08
2023-08-11T19:07:35.183Z,23.93
2023-08-11T19:10:04.741Z,23.78
2023-08-11T19:12:31.855Z,23.65
2023-08-11T19:15:00.882Z,23.54
2023-08-11T19:17:29.771Z,23.39
2023-08-11T19:19:56.400Z,23.25
2023-08-11T19:22:25.104Z,23.16
2023-08-11T19:24:52.850Z,23.02
2023-08-11T19:27:19.478Z,22.89
2023-08-11T19:29:46.189Z,22.78
2023-08-11T19:32:15.295Z,22.71
2023-08-11T19:34:44.447Z,22.54
2023-08-11T19:37:11.182Z,22.46
2023-08-11T19:39:40.537Z,22.48
2023-08-11T19:42:07.422Z,22.47
2023-08-11T19:44:38.353Z,22.45
2023-08-11T19:47:09.757Z,22.43
2023-08-11T19:49:41.270Z,22.39
2023-08-11T19:52:08.368Z,22.30
2023-08-11T19:54:38.001Z,22.22
2023-08-11T19:57:04.797Z,22.12
2023-08-11T19:59:36.804Z,22.06
2023-08-11T20:02:06.067Z,22.00
2023-08-11T20:04:33.371Z,21.92
2023-08-11T20:07:02.447Z,21.87
2023-08-11T20:09:36.418Z,21.81
2023-08-11T20:12:03.604Z,21.75
2023-08-11T20:14:30.325Z,21.71
2023-08-11T20:17:02.710Z,21.66
2023-08-11T20:19:31.904Z,21.65
2023-08-11T20:21:58.629Z,21.57
2023-08-11T20:24:25.414Z,21.55
2023-08-11T20:26:57.498Z,21.58
2023-08-11T20:29:24.816Z,21.54
2023-08-11T20:31:54.969Z,21.46
2023-08-11T20:34:24.659Z,21.34
2023-08-11T20:36:53.744Z,21.18
2023-08-11T20:39:23.069Z,21.07
2023-08-11T20:41:50.612Z,20.99
2023-08-11T20:44:17.472Z,20.96
2023-08-11T20:46:44.073Z,20.86
2023-08-11T20:49:11.135Z,20.81
2023-08-11T20:51:40.181Z,20.80
2023-08-11T20:54:09.402Z,20.75
2023-08-11T20:56:38.814Z,20.72
2023-08-11T20:59:05.599Z,20.68
2023-08-11T21:01:36.804Z,20.64
2023-08-11T21:04:03.723Z,20.53
2023-08-11T21:06:33.373Z,20.34
2023-08-11T21:09:00.579Z,20.25
2023-08-11T21:11:29.730Z,20.28
2023-08-11T21:13:58.421Z,20.35
2023-08-11T21:16:27.576Z,20.37
2023-08-11T21:18:56.846Z,20.32
2023-08-11T21:21:25.610Z,20.23
2023-08-11T21:23:53.158Z,20.12
2023-08-11T21:26:19.796Z,19.98
2023-08-11T21:28:46.626Z,19.98
2023-08-11T21:31:18.215Z,20.01
2023-08-11T21:34:00.885Z,19.90
2023-08-11T21:36:29.758Z,19.83
2023-08-11T21:38:56.405Z,19.89
2023-08-11T21:41:25.587Z,19.91
2023-08-11T21:43:52.821Z,19.97
2023-08-11T21:46:22.363Z,20.00
2023-08-11T21:48:49.193Z,19.98
2023-08-11T21:51:16.335Z,19.87
2023-08-11T21:53:43.040Z,19.85
2023-08-11T21:56:10.025Z,19.86
2023-08-11T21:58:36.625Z,19.89
2023-08-11T22:01:03.396Z,19.90
2023-08-11T22:03:30.032Z,19.86
2023-08-11T22:05:58.904Z,19.75
2023-08-11T22:08:25.606Z,19.74
2023-08-11T22:10:52.754Z,19.66
2023-08-11T22:13:19.463Z,19.59
2023-08-11T22:15:48.332Z,19.62
2023-08-11T22:18:20.369Z,19.61
2023-08-11T22:20:47.001Z,19.63
2023-08-11T22:23:13.639Z,19.61
2023-08-11T22:25:40.524Z,19.56
2023-08-11T22:28:07.608Z,19.52
2023-08-11T22:30:36.767Z,19.49
2023-08-11T22:33:03.717Z,19.48
2023-08-11T22:35:30.452Z,19.47
2023-08-11T22:37:57.902Z,19.38
2023-08-11T22:40:24.949Z,19.20
2023-08-11T22:42:51.726Z,19.08
2023-08-11T22:45:18.439Z,19.05
2023-08-11T22:47:45.232Z,19.07
2023-08-11T22:50:11.968Z,19.04
2023-08-11T22:52:38.695Z,19.03
2023-08-11T22:55:05.539Z,19.02
2023-08-11T22:57:34.554Z,18.85
2023-08-11T23:00:07.857Z,18.69
2023-08-11T23:02:37.738Z,18.72
2023-08-11T23:05:04.976Z,18.78
2023-08-11T23:07:31.737Z,18.85
2023-08-11T23:10:00.811Z,18.92
2023-08-11T23:12:28.953Z,19.00
2023-08-11T23:14:57.086Z,18.99
2023-08-11T23:17:26.127Z,18.99
2023-08-11T23:19:54.232Z,18.95
2023-08-11T23:22:20.902Z,18.93
2023-08-11T23:24:52.984Z,18.93
2023-08-11T23:27:19.589Z,18.93
2023-08-11T23:29:48.876Z,18.94
2023-08-11T23:32:17.717Z,18.88
2023-08-11T23:34:46.603Z,18.83
2023-08-11T23:37:15.779Z,18.80
2023-08-11T23:39:44.787Z,18.71
2023-08-11T23:42:13.649Z,18.71
2023-08-11T23:44:40.814Z,18.75
2023-08-11T23:47:10.054Z,18.74
2023-08-11T23:49:39.869Z,18.74
2023-08-11T23:52:09.151Z,18.68
2023-08-11T23:54:35.776Z,18.66
2023-08-11T23:57:05.219Z,18.61
2023-08-11T23:59:34.451Z,18.64
